Ginostra M — IBRP — position and weather

sailwx.info

Track history (hours):
 
Tides and Currents Weather Stations Pressure Air Temp Water Temp Dewpoint Dewpoint Depression Visibility Wind Speed Wind Dir Waves Ship Positions

Ginostra M

Last reported at 2018-Jul-14 22:52 UTC. Time now 2018-Jul-16 02:37 UTC.
Position N 36°11' W 005°24'.

Length 113 m; draft 5.9 m.

Type: Tanker. MMSI: 247162900.

Date/timePositionNaut miles runAvg speedWind from/ knotsBaromVisibWave heightAir tempDewpointWater temp
2018-Jul-14 22:52N 36°11' W 005°24'1 3.5
2018-Jul-14 22:30N 36°10' W 005°25'0 0.2
2018-Jul-14 20:30N 36°09' W 005°25'0 0.0
2018-Jul-14 19:57N 36°09' W 005°25'0 0.0
2018-Jul-14 19:21N 36°09' W 005°25'0 0.0
2018-Jul-14 18:51N 36°09' W 005°25'0 0.1
2018-Jul-14 18:27N 36°09' W 005°25'0 0.0
2018-Jul-14 17:57N 36°09' W 005°25'0 0.0
2018-Jul-14 17:27N 36°09' W 005°25'0 0.1
2018-Jul-14 16:57N 36°10' W 005°25'0 0.0
2018-Jul-14 16:15N 36°10' W 005°25'0 0.0
2018-Jul-14 15:57N 36°10' W 005°25'0 0.0
2018-Jul-14 15:21N 36°10' W 005°25'0 0.0
2018-Jul-14 14:57N 36°09' W 005°25'0 0.0
2018-Jul-14 13:57N 36°09' W 005°25'0 0.0
2018-Jul-14 13:27N 36°09' W 005°25'0 0.0
2018-Jul-14 13:00N 36°09' W 005°25'0 0.0
2018-Jul-14 10:09N 36°10' W 005°25'0 0.1
2018-Jul-14 09:57N 36°10' W 005°26'0 0.0
2018-Jul-14 09:27N 36°10' W 005°26'0 0.0
2018-Jul-14 08:57N 36°10' W 005°26'0 0.0
2018-Jul-14 06:21N 36°10' W 005°25'0 0.1
2018-Jul-14 05:57N 36°10' W 005°25'0 0.0
2018-Jul-14 05:15N 36°10' W 005°25'0 0.1
2018-Jul-14 04:51N 36°10' W 005°25'0 0.1
2018-Jul-14 04:15N 36°09' W 005°25'0 0.1
2018-Jul-14 03:57N 36°09' W 005°25'0 0.0
2018-Jul-14 03:27N 36°09' W 005°25'0 0.0
2018-Jul-14 01:33N 36°09' W 005°25'0 0.1
2018-Jul-14 01:03N 36°09' W 005°25'0 0.1
2018-Jul-14 00:57N 36°09' W 005°25'0 0.0
2018-Jul-14 00:27N 36°09' W 005°25'0 0.0
2018-Jul-13 23:57N 36°09' W 005°25'0 0.0
2018-Jul-12 21:14N 36°09' W 005°25'0 0.1
2018-Jul-12 20:56N 36°09' W 005°25'0 0.0
2018-Jul-12 20:26N 36°09' W 005°25'0 0.0
2018-Jul-12 19:56N 36°09' W 005°25'0 0.1
2018-Jul-12 19:26N 36°09' W 005°25'6 1.6
2018-Jul-12 15:46N 36°04' W 005°23'313.5
2018-Jul-12 15:30N 36°00' W 005°23'815.0
2018-Jul-12 15:00N 35°57' W 005°31'39211.8
2018-Jul-11 05:55N 30°32' W 009°54'1412.9
2018-Jul-11 04:50N 30°25' W 009°40'1 3.4
2018-Jul-11 04:30N 30°25' W 009°39'0 0.0
2018-Jul-09 20:26N 30°25' W 009°38'1 1.4
2018-Jul-09 19:38N 30°25' W 009°39'0 1.1
2018-Jul-09 19:30N 30°25' W 009°39'2 4.9
2018-Jul-09 19:00N 30°26' W 009°42'1 0.7
2018-Jul-09 17:52N 30°27' W 009°42'0 0.0
2018-Jul-09 17:22N 30°27' W 009°42'0 0.0
2018-Jul-09 15:53N 30°27' W 009°42'0 0.0
2018-Jul-09 15:19N 30°27' W 009°42'0 0.0
2018-Jul-09 14:58N 30°27' W 009°42'0 0.0
2018-Jul-09 14:22N 30°27' W 009°42'0 0.0
2018-Jul-09 12:52N 30°27' W 009°42'0 0.0
2018-Jul-09 11:22N 30°27' W 009°42'0 0.0
2018-Jul-09 10:58N 30°27' W 009°42'0 0.0
2018-Jul-09 09:40N 30°27' W 009°42'0 0.0
2018-Jul-09 09:25N 30°27' W 009°42'0 0.0
2018-Jul-09 08:58N 30°27' W 009°42'0 0.0
2018-Jul-09 08:28N 30°27' W 009°42'0 0.0
2018-Jul-08 13:28N 30°27' W 009°42'0 0.0
2018-Jul-07 19:17N 30°27' W 009°42'4 9.0
2018-Jul-07 18:52N 30°28' W 009°46'3111.6
2018-Jul-07 16:10N 30°54' W 010°06'413.0
2018-Jul-07 15:49N 30°59' W 010°07'1713.1
2018-Jul-07 14:31N 31°16' W 010°08'012.8
2018-Jul-07 14:30N 31°16' W 010°08'1313.2
2018-Jul-07 13:31N 31°29' W 010°09'113.2
2018-Jul-07 13:28N 31°30' W 010°09'13812.7
2018-Jul-07 02:36N 33°29' W 008°46'112.9
2018-Jul-07 02:31N 33°30' W 008°45'22011.9
2018-Jul-06 08:05N 35°60' W 005°29'110.0
2018-Jul-06 08:01N 35°60' W 005°29'5 9.3
2018-Jul-06 07:30N 36°03' W 005°24'610.6
2018-Jul-06 06:59N 36°08' W 005°24'2 2.0
2018-Jul-06 06:05N 36°10' W 005°26'0 0.3
2018-Jul-06 05:59N 36°10' W 005°26'2 0.2
2018-Jul-05 20:19N 36°11' W 005°24'0 0.0
2018-Jul-05 19:55N 36°11' W 005°24'0 0.0
2018-Jul-05 00:25N 36°11' W 005°24'0 0.0
2018-Jul-05 00:00N 36°11' W 005°24'3 5.2
2018-Jul-04 23:30N 36°08' W 005°24'5 9.4
2018-Jul-04 23:00N 36°04' W 005°22'  
Track history (hours):
 
Tides and Currents Weather Stations Pressure Air Temp Water Temp Dewpoint Dewpoint Depression Visibility Wind Speed Wind Dir Waves Ship Positions

Ginostra M

Last reported at 2018-Jul-14 22:52 UTC. Time now 2018-Jul-16 02:37 UTC.
Position N 36°11' W 005°24'.

Length 113 m; draft 5.9 m.

Type: Tanker. MMSI: 247162900.

Date/timePositionNaut miles runAvg speedWind from/ knotsBaromVisibWave heightAir tempDewpointWater temp
2018-Jul-14 22:52N 36°11' W 005°24'1 3.5
2018-Jul-14 22:30N 36°10' W 005°25'0 0.2
2018-Jul-14 20:30N 36°09' W 005°25'0 0.0
2018-Jul-14 19:57N 36°09' W 005°25'0 0.0
2018-Jul-14 19:21N 36°09' W 005°25'0 0.0
2018-Jul-14 18:51N 36°09' W 005°25'0 0.1
2018-Jul-14 18:27N 36°09' W 005°25'0 0.0
2018-Jul-14 17:57N 36°09' W 005°25'0 0.0
2018-Jul-14 17:27N 36°09' W 005°25'0 0.1
2018-Jul-14 16:57N 36°10' W 005°25'0 0.0
2018-Jul-14 16:15N 36°10' W 005°25'0 0.0
2018-Jul-14 15:57N 36°10' W 005°25'0 0.0
2018-Jul-14 15:21N 36°10' W 005°25'0 0.0
2018-Jul-14 14:57N 36°09' W 005°25'0 0.0
2018-Jul-14 13:57N 36°09' W 005°25'0 0.0
2018-Jul-14 13:27N 36°09' W 005°25'0 0.0
2018-Jul-14 13:00N 36°09' W 005°25'0 0.0
2018-Jul-14 10:09N 36°10' W 005°25'0 0.1
2018-Jul-14 09:57N 36°10' W 005°26'0 0.0
2018-Jul-14 09:27N 36°10' W 005°26'0 0.0
2018-Jul-14 08:57N 36°10' W 005°26'0 0.0
2018-Jul-14 06:21N 36°10' W 005°25'0 0.1
2018-Jul-14 05:57N 36°10' W 005°25'0 0.0
2018-Jul-14 05:15N 36°10' W 005°25'0 0.1
2018-Jul-14 04:51N 36°10' W 005°25'0 0.1
2018-Jul-14 04:15N 36°09' W 005°25'0 0.1
2018-Jul-14 03:57N 36°09' W 005°25'0 0.0
2018-Jul-14 03:27N 36°09' W 005°25'0 0.0
2018-Jul-14 01:33N 36°09' W 005°25'0 0.1
2018-Jul-14 01:03N 36°09' W 005°25'0 0.1
2018-Jul-14 00:57N 36°09' W 005°25'0 0.0
2018-Jul-14 00:27N 36°09' W 005°25'0 0.0
2018-Jul-13 23:57N 36°09' W 005°25'0 0.0
2018-Jul-12 21:14N 36°09' W 005°25'0 0.1
2018-Jul-12 20:56N 36°09' W 005°25'0 0.0
2018-Jul-12 20:26N 36°09' W 005°25'0 0.0
2018-Jul-12 19:56N 36°09' W 005°25'0 0.1
2018-Jul-12 19:26N 36°09' W 005°25'6 1.6
2018-Jul-12 15:46N 36°04' W 005°23'313.5
2018-Jul-12 15:30N 36°00' W 005°23'815.0
2018-Jul-12 15:00N 35°57' W 005°31'39211.8
2018-Jul-11 05:55N 30°32' W 009°54'1412.9
2018-Jul-11 04:50N 30°25' W 009°40'1 3.4
2018-Jul-11 04:30N 30°25' W 009°39'0 0.0
2018-Jul-09 20:26N 30°25' W 009°38'1 1.4
2018-Jul-09 19:38N 30°25' W 009°39'0 1.1
2018-Jul-09 19:30N 30°25' W 009°39'2 4.9
2018-Jul-09 19:00N 30°26' W 009°42'1 0.7
2018-Jul-09 17:52N 30°27' W 009°42'0 0.0
2018-Jul-09 17:22N 30°27' W 009°42'0 0.0
2018-Jul-09 15:53N 30°27' W 009°42'0 0.0
2018-Jul-09 15:19N 30°27' W 009°42'0 0.0
2018-Jul-09 14:58N 30°27' W 009°42'0 0.0
2018-Jul-09 14:22N 30°27' W 009°42'0 0.0
2018-Jul-09 12:52N 30°27' W 009°42'0 0.0
2018-Jul-09 11:22N 30°27' W 009°42'0 0.0
2018-Jul-09 10:58N 30°27' W 009°42'0 0.0
2018-Jul-09 09:40N 30°27' W 009°42'0 0.0
2018-Jul-09 09:25N 30°27' W 009°42'0 0.0
2018-Jul-09 08:58N 30°27' W 009°42'0 0.0
2018-Jul-09 08:28N 30°27' W 009°42'0 0.0
2018-Jul-08 13:28N 30°27' W 009°42'0 0.0
2018-Jul-07 19:17N 30°27' W 009°42'4 9.0
2018-Jul-07 18:52N 30°28' W 009°46'3111.6
2018-Jul-07 16:10N 30°54' W 010°06'413.0
2018-Jul-07 15:49N 30°59' W 010°07'1713.1
2018-Jul-07 14:31N 31°16' W 010°08'012.8
2018-Jul-07 14:30N 31°16' W 010°08'1313.2
2018-Jul-07 13:31N 31°29' W 010°09'113.2
2018-Jul-07 13:28N 31°30' W 010°09'13812.7
2018-Jul-07 02:36N 33°29' W 008°46'112.9
2018-Jul-07 02:31N 33°30' W 008°45'22011.9
2018-Jul-06 08:05N 35°60' W 005°29'110.0
2018-Jul-06 08:01N 35°60' W 005°29'5 9.3
2018-Jul-06 07:30N 36°03' W 005°24'610.6
2018-Jul-06 06:59N 36°08' W 005°24'2 2.0
2018-Jul-06 06:05N 36°10' W 005°26'0 0.3
2018-Jul-06 05:59N 36°10' W 005°26'2 0.2
2018-Jul-05 20:19N 36°11' W 005°24'0 0.0
2018-Jul-05 19:55N 36°11' W 005°24'0 0.0
2018-Jul-05 00:25N 36°11' W 005°24'0 0.0
2018-Jul-05 00:00N 36°11' W 005°24'3 5.2
2018-Jul-04 23:30N 36°08' W 005°24'5 9.4
2018-Jul-04 23:00N 36°04' W 005°22'  

Dump ship's entire track history